sensor_id;sensor_type;location;lat;lon;timestamp;P1;durP1;ratioP1;P2;durP2;ratioP2
55461;SDS011;41327;45.102;20.624;2022-09-09T00:04:35;7.40;;;5.25;;
55461;SDS011;41327;45.102;20.624;2022-09-09T00:09:52;7.03;;;5.40;;
55461;SDS011;41327;45.102;20.624;2022-09-09T00:15:12;6.70;;;5.72;;
55461;SDS011;41327;45.102;20.624;2022-09-09T00:18:46;8.43;;;5.72;;
55461;SDS011;41327;45.102;20.624;2022-09-09T00:23:16;9.70;;;5.72;;
55461;SDS011;41327;45.102;20.624;2022-09-09T00:25:52;7.97;;;5.57;;
55461;SDS011;41327;45.102;20.624;2022-09-09T00:28:25;7.93;;;5.45;;
55461;SDS011;41327;45.102;20.624;2022-09-09T00:30:52;8.80;;;5.68;;
55461;SDS011;41327;45.102;20.624;2022-09-09T00:33:22;6.78;;;5.63;;
55461;SDS011;41327;45.102;20.624;2022-09-09T00:35:50;8.57;;;6.13;;
55461;SDS011;41327;45.102;20.624;2022-09-09T00:41:29;10.55;;;5.75;;
55461;SDS011;41327;45.102;20.624;2022-09-09T00:47:04;9.23;;;5.85;;
55461;SDS011;41327;45.102;20.624;2022-09-09T00:57:30;7.82;;;6.00;;
55461;SDS011;41327;45.102;20.624;2022-09-09T01:00:17;10.23;;;5.95;;
55461;SDS011;41327;45.102;20.624;2022-09-09T01:07:58;6.97;;;5.90;;
55461;SDS011;41327;45.102;20.624;2022-09-09T01:13:25;7.43;;;6.10;;
55461;SDS011;41327;45.102;20.624;2022-09-09T01:15:56;9.80;;;6.10;;
55461;SDS011;41327;45.102;20.624;2022-09-09T01:18:23;9.05;;;5.78;;
55461;SDS011;41327;45.102;20.624;2022-09-09T01:26:30;11.43;;;6.43;;
55461;SDS011;41327;45.102;20.624;2022-09-09T01:28:57;7.30;;;6.00;;
55461;SDS011;41327;45.102;20.624;2022-09-09T01:31:26;8.52;;;6.25;;
55461;SDS011;41327;45.102;20.624;2022-09-09T01:33:53;8.52;;;6.18;;
55461;SDS011;41327;45.102;20.624;2022-09-09T01:36:42;7.70;;;5.65;;
55461;SDS011;41327;45.102;20.624;2022-09-09T01:39:29;8.77;;;6.22;;
55461;SDS011;41327;45.102;20.624;2022-09-09T01:41:55;7.00;;;5.97;;
55461;SDS011;41327;45.102;20.624;2022-09-09T01:44:21;8.88;;;6.07;;
55461;SDS011;41327;45.102;20.624;2022-09-09T01:46:47;9.43;;;6.10;;
55461;SDS011;41327;45.102;20.624;2022-09-09T01:49:12;7.53;;;6.30;;
55461;SDS011;41327;45.102;20.624;2022-09-09T01:51:38;8.05;;;6.65;;
55461;SDS011;41327;45.102;20.624;2022-09-09T01:54:04;8.32;;;5.90;;
55461;SDS011;41327;45.102;20.624;2022-09-09T02:07:02;8.32;;;6.20;;
55461;SDS011;41327;45.102;20.624;2022-09-09T02:09:34;10.48;;;6.50;;
55461;SDS011;41327;45.102;20.624;2022-09-09T02:12:11;9.15;;;6.65;;
55461;SDS011;41327;45.102;20.624;2022-09-09T02:14:41;9.13;;;6.18;;
55461;SDS011;41327;45.102;20.624;2022-09-09T02:17:11;10.85;;;7.10;;
55461;SDS011;41327;45.102;20.624;2022-09-09T02:19:48;9.70;;;6.72;;
55461;SDS011;41327;45.102;20.624;2022-09-09T02:22:16;8.32;;;7.40;;
55461;SDS011;41327;45.102;20.624;2022-09-09T02:24:43;12.10;;;7.15;;
55461;SDS011;41327;45.102;20.624;2022-09-09T02:27:11;11.77;;;7.18;;
55461;SDS011;41327;45.102;20.624;2022-09-09T02:29:39;9.15;;;6.43;;
55461;SDS011;41327;45.102;20.624;2022-09-09T02:32:14;11.10;;;7.00;;
55461;SDS011;41327;45.102;20.624;2022-09-09T02:34:45;8.07;;;6.32;;
55461;SDS011;41327;45.102;20.624;2022-09-09T02:37:13;8.32;;;6.90;;
55461;SDS011;41327;45.102;20.624;2022-09-09T02:39:41;9.70;;;6.57;;
55461;SDS011;41327;45.102;20.624;2022-09-09T02:42:07;10.18;;;6.53;;
55461;SDS011;41327;45.102;20.624;2022-09-09T02:44:33;9.20;;;6.65;;
55461;SDS011;41327;45.102;20.624;2022-09-09T02:50:20;9.30;;;7.00;;
55461;SDS011;41327;45.102;20.624;2022-09-09T02:57:57;7.65;;;6.82;;
55461;SDS011;41327;45.102;20.624;2022-09-09T03:00:25;8.90;;;7.22;;
55461;SDS011;41327;45.102;20.624;2022-09-09T03:02:52;8.15;;;6.72;;
55461;SDS011;41327;45.102;20.624;2022-09-09T03:05:19;9.77;;;7.25;;
55461;SDS011;41327;45.102;20.624;2022-09-09T03:07:45;9.57;;;7.10;;
55461;SDS011;41327;45.102;20.624;2022-09-09T03:10:11;10.30;;;7.25;;
55461;SDS011;41327;45.102;20.624;2022-09-09T03:12:37;11.43;;;7.38;;
55461;SDS011;41327;45.102;20.624;2022-09-09T03:15:03;10.73;;;7.68;;
55461;SDS011;41327;45.102;20.624;2022-09-09T03:17:30;8.27;;;6.88;;
55461;SDS011;41327;45.102;20.624;2022-09-09T03:19:55;8.85;;;7.70;;
55461;SDS011;41327;45.102;20.624;2022-09-09T03:22:20;10.32;;;7.75;;
55461;SDS011;41327;45.102;20.624;2022-09-09T03:24:46;13.68;;;8.23;;
55461;SDS011;41327;45.102;20.624;2022-09-09T03:27:12;10.00;;;7.85;;
55461;SDS011;41327;45.102;20.624;2022-09-09T03:29:39;10.77;;;8.07;;
55461;SDS011;41327;45.102;20.624;2022-09-09T03:32:05;10.27;;;8.48;;
55461;SDS011;41327;45.102;20.624;2022-09-09T03:34:30;12.40;;;8.07;;
55461;SDS011;41327;45.102;20.624;2022-09-09T03:36:56;9.82;;;8.00;;
55461;SDS011;41327;45.102;20.624;2022-09-09T03:39:22;11.05;;;7.82;;
55461;SDS011;41327;45.102;20.624;2022-09-09T03:41:47;9.48;;;7.57;;
55461;SDS011;41327;45.102;20.624;2022-09-09T03:44:13;8.70;;;7.25;;
55461;SDS011;41327;45.102;20.624;2022-09-09T03:46:39;10.70;;;8.00;;
55461;SDS011;41327;45.102;20.624;2022-09-09T03:49:05;10.85;;;7.88;;
55461;SDS011;41327;45.102;20.624;2022-09-09T03:51:30;13.70;;;9.10;;
55461;SDS011;41327;45.102;20.624;2022-09-09T03:53:56;11.85;;;8.52;;
55461;SDS011;41327;45.102;20.624;2022-09-09T03:56:23;12.80;;;8.10;;
55461;SDS011;41327;45.102;20.624;2022-09-09T03:58:49;13.73;;;7.88;;
55461;SDS011;41327;45.102;20.624;2022-09-09T04:01:14;12.18;;;8.55;;
55461;SDS011;41327;45.102;20.624;2022-09-09T04:03:42;10.27;;;7.85;;
55461;SDS011;41327;45.102;20.624;2022-09-09T04:06:08;12.30;;;8.02;;
55461;SDS011;41327;45.102;20.624;2022-09-09T04:08:34;9.95;;;8.25;;
55461;SDS011;41327;45.102;20.624;2022-09-09T04:11:02;10.68;;;8.05;;
55461;SDS011;41327;45.102;20.624;2022-09-09T04:13:31;10.30;;;8.38;;
55461;SDS011;41327;45.102;20.624;2022-09-09T04:15:59;11.00;;;8.27;;
55461;SDS011;41327;45.102;20.624;2022-09-09T04:18:25;10.15;;;7.82;;
55461;SDS011;41327;45.102;20.624;2022-09-09T04:20:53;14.10;;;8.63;;
55461;SDS011;41327;45.102;20.624;2022-09-09T04:23:20;13.02;;;8.80;;
55461;SDS011;41327;45.102;20.624;2022-09-09T04:25:46;13.38;;;9.27;;
55461;SDS011;41327;45.102;20.624;2022-09-09T04:28:22;12.05;;;9.63;;
55461;SDS011;41327;45.102;20.624;2022-09-09T04:30:49;12.32;;;9.43;;
55461;SDS011;41327;45.102;20.624;2022-09-09T04:33:15;14.43;;;10.40;;
55461;SDS011;41327;45.102;20.624;2022-09-09T04:35:49;15.73;;;10.57;;
55461;SDS011;41327;45.102;20.624;2022-09-09T04:38:19;16.25;;;11.32;;
55461;SDS011;41327;45.102;20.624;2022-09-09T04:40:49;25.73;;;13.52;;
55461;SDS011;41327;45.102;20.624;2022-09-09T04:43:16;17.58;;;10.48;;
55461;SDS011;41327;45.102;20.624;2022-09-09T04:45:42;19.98;;;9.63;;
55461;SDS011;41327;45.102;20.624;2022-09-09T04:48:08;15.30;;;9.05;;
55461;SDS011;41327;45.102;20.624;2022-09-09T04:50:37;13.27;;;9.25;;
55461;SDS011;41327;45.102;20.624;2022-09-09T04:53:02;15.95;;;9.30;;
55461;SDS011;41327;45.102;20.624;2022-09-09T04:55:29;11.50;;;8.23;;
55461;SDS011;41327;45.102;20.624;2022-09-09T04:57:56;15.25;;;9.20;;
55461;SDS011;41327;45.102;20.624;2022-09-09T05:00:22;13.45;;;9.00;;
55461;SDS011;41327;45.102;20.624;2022-09-09T05:02:48;13.43;;;9.07;;
55461;SDS011;41327;45.102;20.624;2022-09-09T05:05:14;11.48;;;8.90;;
55461;SDS011;41327;45.102;20.624;2022-09-09T05:07:39;15.98;;;9.73;;
55461;SDS011;41327;45.102;20.624;2022-09-09T05:10:05;14.82;;;9.35;;
55461;SDS011;41327;45.102;20.624;2022-09-09T05:12:31;21.30;;;10.20;;
55461;SDS011;41327;45.102;20.624;2022-09-09T05:14:57;17.25;;;10.52;;
55461;SDS011;41327;45.102;20.624;2022-09-09T05:17:22;16.15;;;10.40;;
55461;SDS011;41327;45.102;20.624;2022-09-09T05:19:48;16.80;;;10.68;;
55461;SDS011;41327;45.102;20.624;2022-09-09T05:22:18;14.70;;;10.77;;
55461;SDS011;41327;45.102;20.624;2022-09-09T05:24:48;15.70;;;11.32;;
55461;SDS011;41327;45.102;20.624;2022-09-09T05:27:16;16.58;;;11.32;;
55461;SDS011;41327;45.102;20.624;2022-09-09T05:29:44;14.80;;;10.93;;
55461;SDS011;41327;45.102;20.624;2022-09-09T05:32:10;17.63;;;11.07;;
55461;SDS011;41327;45.102;20.624;2022-09-09T05:34:36;17.20;;;10.40;;
55461;SDS011;41327;45.102;20.624;2022-09-09T05:37:02;17.83;;;10.32;;
55461;SDS011;41327;45.102;20.624;2022-09-09T05:39:29;14.52;;;9.85;;
55461;SDS011;41327;45.102;20.624;2022-09-09T05:41:55;16.08;;;11.73;;
55461;SDS011;41327;45.102;20.624;2022-09-09T05:44:20;15.90;;;9.68;;
55461;SDS011;41327;45.102;20.624;2022-09-09T05:46:48;14.23;;;9.77;;
55461;SDS011;41327;45.102;20.624;2022-09-09T05:49:14;17.80;;;9.27;;
55461;SDS011;41327;45.102;20.624;2022-09-09T05:51:40;13.48;;;8.95;;
55461;SDS011;41327;45.102;20.624;2022-09-09T05:54:08;14.73;;;8.90;;
55461;SDS011;41327;45.102;20.624;2022-09-09T05:56:33;14.65;;;9.18;;
55461;SDS011;41327;45.102;20.624;2022-09-09T05:58:59;13.93;;;9.02;;
55461;SDS011;41327;45.102;20.624;2022-09-09T06:01:29;13.80;;;8.63;;
55461;SDS011;41327;45.102;20.624;2022-09-09T06:03:57;14.48;;;9.00;;
55461;SDS011;41327;45.102;20.624;2022-09-09T06:06:24;14.23;;;9.63;;
55461;SDS011;41327;45.102;20.624;2022-09-09T06:08:56;13.98;;;9.20;;
55461;SDS011;41327;45.102;20.624;2022-09-09T06:11:26;18.20;;;9.63;;
55461;SDS011;41327;45.102;20.624;2022-09-09T06:13:52;10.70;;;8.93;;
55461;SDS011;41327;45.102;20.624;2022-09-09T06:16:21;12.95;;;9.07;;
55461;SDS011;41327;45.102;20.624;2022-09-09T06:18:51;13.00;;;8.35;;
55461;SDS011;41327;45.102;20.624;2022-09-09T06:21:19;15.45;;;9.07;;
55461;SDS011;41327;45.102;20.624;2022-09-09T06:24:05;15.20;;;9.35;;
55461;SDS011;41327;45.102;20.624;2022-09-09T06:26:33;12.60;;;8.68;;
55461;SDS011;41327;45.102;20.624;2022-09-09T06:29:00;12.90;;;8.43;;
55461;SDS011;41327;45.102;20.624;2022-09-09T06:31:28;12.95;;;8.73;;
55461;SDS011;41327;45.102;20.624;2022-09-09T06:33:59;13.50;;;8.73;;
55461;SDS011;41327;45.102;20.624;2022-09-09T06:36:26;15.60;;;9.07;;
55461;SDS011;41327;45.102;20.624;2022-09-09T06:38:52;13.95;;;9.25;;
55461;SDS011;41327;45.102;20.624;2022-09-09T06:41:19;13.15;;;8.82;;
55461;SDS011;41327;45.102;20.624;2022-09-09T06:43:46;15.38;;;9.25;;
55461;SDS011;41327;45.102;20.624;2022-09-09T06:46:13;13.15;;;8.80;;
55461;SDS011;41327;45.102;20.624;2022-09-09T06:48:49;13.10;;;9.10;;
55461;SDS011;41327;45.102;20.624;2022-09-09T06:51:18;16.30;;;9.02;;
55461;SDS011;41327;45.102;20.624;2022-09-09T06:53:46;13.25;;;8.88;;
55461;SDS011;41327;45.102;20.624;2022-09-09T06:58:48;11.45;;;8.70;;
55461;SDS011;41327;45.102;20.624;2022-09-09T07:01:15;11.70;;;8.57;;
55461;SDS011;41327;45.102;20.624;2022-09-09T07:03:42;11.73;;;8.18;;
55461;SDS011;41327;45.102;20.624;2022-09-09T07:06:13;10.50;;;8.52;;
55461;SDS011;41327;45.102;20.624;2022-09-09T07:08:40;11.45;;;8.35;;
55461;SDS011;41327;45.102;20.624;2022-09-09T07:11:06;15.57;;;9.40;;
55461;SDS011;41327;45.102;20.624;2022-09-09T07:13:33;14.13;;;9.40;;
55461;SDS011;41327;45.102;20.624;2022-09-09T07:16:05;14.27;;;9.20;;
55461;SDS011;41327;45.102;20.624;2022-09-09T07:18:32;13.95;;;9.63;;
55461;SDS011;41327;45.102;20.624;2022-09-09T07:20:58;14.98;;;9.77;;
55461;SDS011;41327;45.102;20.624;2022-09-09T07:23:24;15.38;;;9.68;;
55461;SDS011;41327;45.102;20.624;2022-09-09T07:25:51;13.43;;;9.38;;
55461;SDS011;41327;45.102;20.624;2022-09-09T07:28:18;14.77;;;9.73;;
55461;SDS011;41327;45.102;20.624;2022-09-09T07:30:52;13.10;;;9.65;;
55461;SDS011;41327;45.102;20.624;2022-09-09T07:33:21;17.38;;;10.27;;
55461;SDS011;41327;45.102;20.624;2022-09-09T07:35:48;21.80;;;15.43;;
55461;SDS011;41327;45.102;20.624;2022-09-09T07:38:14;24.33;;;16.63;;
55461;SDS011;41327;45.102;20.624;2022-09-09T07:40:40;26.92;;;13.48;;
55461;SDS011;41327;45.102;20.624;2022-09-09T07:43:05;20.33;;;10.48;;
55461;SDS011;41327;45.102;20.624;2022-09-09T07:45:31;14.80;;;9.20;;
55461;SDS011;41327;45.102;20.624;2022-09-09T07:47:58;15.80;;;8.85;;
55461;SDS011;41327;45.102;20.624;2022-09-09T07:50:24;13.20;;;9.80;;
55461;SDS011;41327;45.102;20.624;2022-09-09T07:52:52;13.60;;;8.95;;
55461;SDS011;41327;45.102;20.624;2022-09-09T07:55:19;13.27;;;9.15;;
55461;SDS011;41327;45.102;20.624;2022-09-09T07:57:45;11.65;;;8.15;;
55461;SDS011;41327;45.102;20.624;2022-09-09T08:00:12;14.57;;;8.38;;
55461;SDS011;41327;45.102;20.624;2022-09-09T08:02:39;11.48;;;8.63;;
55461;SDS011;41327;45.102;20.624;2022-09-09T08:05:05;15.02;;;9.73;;
55461;SDS011;41327;45.102;20.624;2022-09-09T08:07:31;12.45;;;9.38;;
55461;SDS011;41327;45.102;20.624;2022-09-09T08:09:56;16.30;;;8.95;;
55461;SDS011;41327;45.102;20.624;2022-09-09T08:12:22;10.57;;;7.68;;
55461;SDS011;41327;45.102;20.624;2022-09-09T08:14:48;11.35;;;7.85;;
55461;SDS011;41327;45.102;20.624;2022-09-09T08:17:14;12.45;;;7.78;;
55461;SDS011;41327;45.102;20.624;2022-09-09T08:19:39;10.25;;;8.27;;
55461;SDS011;41327;45.102;20.624;2022-09-09T08:22:05;10.75;;;7.65;;
55461;SDS011;41327;45.102;20.624;2022-09-09T08:24:31;12.40;;;8.10;;
55461;SDS011;41327;45.102;20.624;2022-09-09T08:26:56;10.80;;;7.78;;
55461;SDS011;41327;45.102;20.624;2022-09-09T08:29:22;12.60;;;8.10;;
55461;SDS011;41327;45.102;20.624;2022-09-09T08:31:49;16.40;;;8.05;;
55461;SDS011;41327;45.102;20.624;2022-09-09T08:34:19;11.48;;;7.82;;
55461;SDS011;41327;45.102;20.624;2022-09-09T08:36:46;10.82;;;7.80;;
55461;SDS011;41327;45.102;20.624;2022-09-09T08:39:14;12.57;;;8.63;;
55461;SDS011;41327;45.102;20.624;2022-09-09T08:44:14;14.15;;;9.73;;
55461;SDS011;41327;45.102;20.624;2022-09-09T08:52:23;13.52;;;10.10;;
55461;SDS011;41327;45.102;20.624;2022-09-09T08:54:55;12.73;;;9.15;;
55461;SDS011;41327;45.102;20.624;2022-09-09T08:57:23;12.18;;;8.88;;
55461;SDS011;41327;45.102;20.624;2022-09-09T08:59:52;12.90;;;8.25;;
55461;SDS011;41327;45.102;20.624;2022-09-09T09:12:58;18.85;;;10.45;;
55461;SDS011;41327;45.102;20.624;2022-09-09T09:15:28;15.23;;;9.93;;
55461;SDS011;41327;45.102;20.624;2022-09-09T09:17:56;12.70;;;9.90;;
55461;SDS011;41327;45.102;20.624;2022-09-09T09:26:40;13.68;;;10.00;;
55461;SDS011;41327;45.102;20.624;2022-09-09T09:29:12;12.23;;;9.93;;
55461;SDS011;41327;45.102;20.624;2022-09-09T09:31:42;11.38;;;9.35;;
55461;SDS011;41327;45.102;20.624;2022-09-09T09:34:21;10.98;;;9.80;;
55461;SDS011;41327;45.102;20.624;2022-09-09T09:36:55;11.88;;;9.55;;
55461;SDS011;41327;45.102;20.624;2022-09-09T09:39:25;10.75;;;9.57;;
55461;SDS011;41327;45.102;20.624;2022-09-09T09:41:52;13.43;;;9.70;;
55461;SDS011;41327;45.102;20.624;2022-09-09T09:44:29;13.98;;;9.65;;
55461;SDS011;41327;45.102;20.624;2022-09-09T09:47:10;12.82;;;9.80;;
55461;SDS011;41327;45.102;20.624;2022-09-09T09:49:50;10.70;;;8.85;;
55461;SDS011;41327;45.102;20.624;2022-09-09T09:52:17;11.60;;;9.30;;
55461;SDS011;41327;45.102;20.624;2022-09-09T09:54:46;13.75;;;9.60;;
55461;SDS011;41327;45.102;20.624;2022-09-09T09:57:12;11.65;;;9.77;;
55461;SDS011;41327;45.102;20.624;2022-09-09T09:59:40;12.80;;;8.82;;
55461;SDS011;41327;45.102;20.624;2022-09-09T10:02:31;14.00;;;10.32;;
55461;SDS011;41327;45.102;20.624;2022-09-09T10:05:00;11.98;;;9.43;;
55461;SDS011;41327;45.102;20.624;2022-09-09T10:07:45;14.13;;;10.80;;
55461;SDS011;41327;45.102;20.624;2022-09-09T10:10:14;24.85;;;11.32;;
55461;SDS011;41327;45.102;20.624;2022-09-09T10:36:52;12.68;;;9.50;;
55461;SDS011;41327;45.102;20.624;2022-09-09T10:39:36;16.05;;;9.75;;
55461;SDS011;41327;45.102;20.624;2022-09-09T10:42:15;15.35;;;11.05;;
55461;SDS011;41327;45.102;20.624;2022-09-09T10:44:48;16.85;;;11.45;;
55461;SDS011;41327;45.102;20.624;2022-09-09T10:55:51;13.40;;;10.60;;
55461;SDS011;41327;45.102;20.624;2022-09-09T11:01:41;11.57;;;9.15;;
55461;SDS011;41327;45.102;20.624;2022-09-09T11:04:15;13.32;;;8.07;;
55461;SDS011;41327;45.102;20.624;2022-09-09T11:06:47;11.32;;;7.65;;
55461;SDS011;41327;45.102;20.624;2022-09-09T11:09:18;13.43;;;7.03;;
55461;SDS011;41327;45.102;20.624;2022-09-09T11:11:50;11.68;;;8.32;;
55461;SDS011;41327;45.102;20.624;2022-09-09T11:16:57;12.32;;;8.02;;
55461;SDS011;41327;45.102;20.624;2022-09-09T11:22:50;8.68;;;7.38;;
55461;SDS011;41327;45.102;20.624;2022-09-09T11:24:56;10.57;;;7.65;;
55461;SDS011;41327;45.102;20.624;2022-09-09T11:28:06;8.93;;;7.00;;
55461;SDS011;41327;45.102;20.624;2022-09-09T11:41:46;10.07;;;6.90;;
55461;SDS011;41327;45.102;20.624;2022-09-09T11:44:12;8.90;;;6.50;;
55461;SDS011;41327;45.102;20.624;2022-09-09T11:46:42;10.35;;;5.97;;
55461;SDS011;41327;45.102;20.624;2022-09-09T11:49:28;11.48;;;6.70;;
55461;SDS011;41327;45.102;20.624;2022-09-09T11:51:56;9.40;;;5.95;;
55461;SDS011;41327;45.102;20.624;2022-09-09T11:54:27;10.80;;;5.72;;
55461;SDS011;41327;45.102;20.624;2022-09-09T11:56:54;8.25;;;5.60;;
55461;SDS011;41327;45.102;20.624;2022-09-09T11:59:20;7.30;;;4.40;;
55461;SDS011;41327;45.102;20.624;2022-09-09T12:02:00;7.32;;;5.43;;
55461;SDS011;41327;45.102;20.624;2022-09-09T12:04:37;9.40;;;6.00;;
55461;SDS011;41327;45.102;20.624;2022-09-09T12:12:24;7.22;;;4.63;;
55461;SDS011;41327;45.102;20.624;2022-09-09T12:14:56;6.72;;;5.13;;
55461;SDS011;41327;45.102;20.624;2022-09-09T12:17:25;7.30;;;5.30;;
55461;SDS011;41327;45.102;20.624;2022-09-09T12:33:22;6.22;;;5.28;;
55461;SDS011;41327;45.102;20.624;2022-09-09T12:35:51;7.85;;;5.53;;
55461;SDS011;41327;45.102;20.624;2022-09-09T12:38:39;7.75;;;5.68;;
55461;SDS011;41327;45.102;20.624;2022-09-09T12:41:05;7.55;;;6.20;;
55461;SDS011;41327;45.102;20.624;2022-09-09T12:43:31;6.40;;;5.45;;
55461;SDS011;41327;45.102;20.624;2022-09-09T12:46:06;6.88;;;5.32;;
55461;SDS011;41327;45.102;20.624;2022-09-09T12:51:01;8.10;;;5.68;;
55461;SDS011;41327;45.102;20.624;2022-09-09T12:53:35;8.50;;;5.65;;
55461;SDS011;41327;45.102;20.624;2022-09-09T12:56:02;9.40;;;6.05;;
55461;SDS011;41327;45.102;20.624;2022-09-09T12:58:30;6.05;;;5.45;;
55461;SDS011;41327;45.102;20.624;2022-09-09T13:01:00;8.05;;;5.35;;
55461;SDS011;41327;45.102;20.624;2022-09-09T13:03:30;5.97;;;5.28;;
55461;SDS011;41327;45.102;20.624;2022-09-09T13:06:38;10.48;;;6.00;;
55461;SDS011;41327;45.102;20.624;2022-09-09T13:08:47;8.60;;;4.72;;
55461;SDS011;41327;45.102;20.624;2022-09-09T13:11:15;8.25;;;4.80;;
55461;SDS011;41327;45.102;20.624;2022-09-09T13:13:49;6.63;;;4.82;;
55461;SDS011;41327;45.102;20.624;2022-09-09T13:16:26;11.30;;;5.80;;
55461;SDS011;41327;45.102;20.624;2022-09-09T13:18:57;8.57;;;5.25;;
55461;SDS011;41327;45.102;20.624;2022-09-09T13:21:35;6.82;;;5.45;;
55461;SDS011;41327;45.102;20.624;2022-09-09T13:24:05;6.47;;;4.70;;
55461;SDS011;41327;45.102;20.624;2022-09-09T13:26:32;6.60;;;3.92;;
55461;SDS011;41327;45.102;20.624;2022-09-09T13:31:50;7.88;;;5.22;;
55461;SDS011;41327;45.102;20.624;2022-09-09T13:34:26;9.95;;;4.53;;
55461;SDS011;41327;45.102;20.624;2022-09-09T13:36:59;4.95;;;3.83;;
55461;SDS011;41327;45.102;20.624;2022-09-09T13:39:27;7.13;;;3.80;;
55461;SDS011;41327;45.102;20.624;2022-09-09T13:41:54;3.90;;;3.20;;
55461;SDS011;41327;45.102;20.624;2022-09-09T13:44:27;7.28;;;3.50;;
55461;SDS011;41327;45.102;20.624;2022-09-09T13:47:04;5.60;;;2.78;;
55461;SDS011;41327;45.102;20.624;2022-09-09T13:49:32;7.15;;;3.22;;
55461;SDS011;41327;45.102;20.624;2022-09-09T13:54:38;4.03;;;3.50;;
55461;SDS011;41327;45.102;20.624;2022-09-09T13:57:04;5.53;;;3.58;;
55461;SDS011;41327;45.102;20.624;2022-09-09T13:59:30;6.55;;;3.75;;
55461;SDS011;41327;45.102;20.624;2022-09-09T14:01:57;7.57;;;3.40;;
55461;SDS011;41327;45.102;20.624;2022-09-09T14:04:22;4.53;;;2.95;;
55461;SDS011;41327;45.102;20.624;2022-09-09T14:06:49;4.85;;;3.78;;
55461;SDS011;41327;45.102;20.624;2022-09-09T14:09:15;4.20;;;3.38;;
55461;SDS011;41327;45.102;20.624;2022-09-09T14:11:42;6.25;;;4.13;;
55461;SDS011;41327;45.102;20.624;2022-09-09T14:14:10;4.47;;;3.58;;
55461;SDS011;41327;45.102;20.624;2022-09-09T14:16:36;6.05;;;3.08;;
55461;SDS011;41327;45.102;20.624;2022-09-09T14:19:03;5.25;;;3.15;;
55461;SDS011;41327;45.102;20.624;2022-09-09T14:21:30;5.45;;;3.50;;
55461;SDS011;41327;45.102;20.624;2022-09-09T14:23:57;5.78;;;3.55;;
55461;SDS011;41327;45.102;20.624;2022-09-09T14:26:23;7.18;;;3.30;;
55461;SDS011;41327;45.102;20.624;2022-09-09T14:28:49;4.85;;;3.30;;
55461;SDS011;41327;45.102;20.624;2022-09-09T14:31:16;5.95;;;3.80;;
55461;SDS011;41327;45.102;20.624;2022-09-09T14:33:46;5.82;;;3.15;;
55461;SDS011;41327;45.102;20.624;2022-09-09T14:36:11;5.18;;;3.08;;
55461;SDS011;41327;45.102;20.624;2022-09-09T14:38:38;5.30;;;3.47;;
55461;SDS011;41327;45.102;20.624;2022-09-09T14:41:11;5.00;;;2.97;;
55461;SDS011;41327;45.102;20.624;2022-09-09T14:43:42;6.45;;;3.40;;
55461;SDS011;41327;45.102;20.624;2022-09-09T14:46:09;7.05;;;3.45;;
55461;SDS011;41327;45.102;20.624;2022-09-09T14:48:44;5.80;;;3.35;;
55461;SDS011;41327;45.102;20.624;2022-09-09T14:51:11;7.05;;;3.97;;
55461;SDS011;41327;45.102;20.624;2022-09-09T14:53:57;6.50;;;3.22;;
55461;SDS011;41327;45.102;20.624;2022-09-09T14:56:27;6.28;;;4.32;;
55461;SDS011;41327;45.102;20.624;2022-09-09T14:59:14;7.88;;;4.13;;
55461;SDS011;41327;45.102;20.624;2022-09-09T15:01:40;6.78;;;4.07;;
55461;SDS011;41327;45.102;20.624;2022-09-09T15:04:06;8.82;;;4.28;;
55461;SDS011;41327;45.102;20.624;2022-09-09T15:06:33;6.20;;;4.07;;
55461;SDS011;41327;45.102;20.624;2022-09-09T15:09:00;6.93;;;4.88;;
55461;SDS011;41327;45.102;20.624;2022-09-09T15:11:27;8.23;;;4.88;;
55461;SDS011;41327;45.102;20.624;2022-09-09T15:13:55;9.25;;;4.40;;
55461;SDS011;41327;45.102;20.624;2022-09-09T15:16:22;4.80;;;4.05;;
55461;SDS011;41327;45.102;20.624;2022-09-09T15:18:50;6.85;;;4.65;;
55461;SDS011;41327;45.102;20.624;2022-09-09T15:21:20;5.93;;;4.80;;
55461;SDS011;41327;45.102;20.624;2022-09-09T15:23:47;7.22;;;5.60;;
55461;SDS011;41327;45.102;20.624;2022-09-09T15:26:28;10.73;;;6.35;;
55461;SDS011;41327;45.102;20.624;2022-09-09T15:28:55;11.18;;;6.43;;
55461;SDS011;41327;45.102;20.624;2022-09-09T15:31:24;10.05;;;5.85;;
55461;SDS011;41327;45.102;20.624;2022-09-09T15:33:57;11.02;;;6.40;;
55461;SDS011;41327;45.102;20.624;2022-09-09T15:36:40;8.40;;;6.03;;
55461;SDS011;41327;45.102;20.624;2022-09-09T15:39:07;8.32;;;6.78;;
55461;SDS011;41327;45.102;20.624;2022-09-09T15:41:34;8.80;;;6.70;;
55461;SDS011;41327;45.102;20.624;2022-09-09T15:44:00;10.27;;;5.72;;
55461;SDS011;41327;45.102;20.624;2022-09-09T15:46:34;10.13;;;6.47;;
55461;SDS011;41327;45.102;20.624;2022-09-09T15:49:05;9.68;;;5.82;;
55461;SDS011;41327;45.102;20.624;2022-09-09T15:51:44;8.48;;;5.65;;
55461;SDS011;41327;45.102;20.624;2022-09-09T15:54:14;8.55;;;5.65;;
55461;SDS011;41327;45.102;20.624;2022-09-09T15:56:46;10.07;;;6.00;;
55461;SDS011;41327;45.102;20.624;2022-09-09T15:59:24;8.50;;;5.50;;
55461;SDS011;41327;45.102;20.624;2022-09-09T16:01:51;12.40;;;6.75;;
55461;SDS011;41327;45.102;20.624;2022-09-09T16:04:21;11.43;;;6.57;;
55461;SDS011;41327;45.102;20.624;2022-09-09T16:06:50;12.90;;;6.55;;
55461;SDS011;41327;45.102;20.624;2022-09-09T16:09:24;11.32;;;6.10;;
55461;SDS011;41327;45.102;20.624;2022-09-09T16:12:15;11.15;;;6.38;;
55461;SDS011;41327;45.102;20.624;2022-09-09T16:14:41;7.78;;;5.53;;
55461;SDS011;41327;45.102;20.624;2022-09-09T16:17:28;11.95;;;7.85;;
55461;SDS011;41327;45.102;20.624;2022-09-09T16:19:54;11.70;;;8.10;;
55461;SDS011;41327;45.102;20.624;2022-09-09T16:23:03;14.45;;;10.45;;
55461;SDS011;41327;45.102;20.624;2022-09-09T16:25:53;17.55;;;12.13;;
55461;SDS011;41327;45.102;20.624;2022-09-09T16:28:20;56.83;;;49.67;;
55461;SDS011;41327;45.102;20.624;2022-09-09T16:30:48;55.85;;;45.30;;
55461;SDS011;41327;45.102;20.624;2022-09-09T16:33:14;55.03;;;45.65;;
55461;SDS011;41327;45.102;20.624;2022-09-09T16:35:41;57.83;;;51.40;;
55461;SDS011;41327;45.102;20.624;2022-09-09T16:38:07;63.35;;;52.25;;
55461;SDS011;41327;45.102;20.624;2022-09-09T16:40:38;62.35;;;52.80;;
55461;SDS011;41327;45.102;20.624;2022-09-09T16:43:06;35.70;;;29.98;;
55461;SDS011;41327;45.102;20.624;2022-09-09T16:45:32;20.00;;;15.40;;
55461;SDS011;41327;45.102;20.624;2022-09-09T16:47:58;42.05;;;23.60;;
55461;SDS011;41327;45.102;20.624;2022-09-09T16:50:25;33.22;;;18.08;;
55461;SDS011;41327;45.102;20.624;2022-09-09T16:52:53;22.85;;;13.63;;
55461;SDS011;41327;45.102;20.624;2022-09-09T16:55:25;19.80;;;11.48;;
55461;SDS011;41327;45.102;20.624;2022-09-09T16:57:51;15.35;;;8.18;;
55461;SDS011;41327;45.102;20.624;2022-09-09T17:00:18;8.95;;;6.18;;
55461;SDS011;41327;45.102;20.624;2022-09-09T17:02:44;10.38;;;6.50;;
55461;SDS011;41327;45.102;20.624;2022-09-09T17:05:10;14.77;;;6.03;;
55461;SDS011;41327;45.102;20.624;2022-09-09T17:07:37;9.82;;;5.95;;
55461;SDS011;41327;45.102;20.624;2022-09-09T17:10:03;8.35;;;5.70;;
55461;SDS011;41327;45.102;20.624;2022-09-09T17:12:30;12.75;;;5.90;;
55461;SDS011;41327;45.102;20.624;2022-09-09T17:14:56;10.27;;;5.97;;
55461;SDS011;41327;45.102;20.624;2022-09-09T17:17:26;12.57;;;6.03;;
55461;SDS011;41327;45.102;20.624;2022-09-09T17:19:52;8.02;;;5.32;;
55461;SDS011;41327;45.102;20.624;2022-09-09T17:22:24;10.68;;;5.10;;
55461;SDS011;41327;45.102;20.624;2022-09-09T17:26:03;11.15;;;5.65;;